sensor_id;sensor_type;location;lat;lon;timestamp;P1;durP1;ratioP1;P2;durP2;ratioP2
67344;SDS011;54230;52.402;6.276;2022-10-26T00:00:00;14.0;;;7.2;;
67344;SDS011;54230;52.402;6.276;2022-10-26T00:05:00;12.7;;;7.1;;
67344;SDS011;54230;52.402;6.276;2022-10-26T00:10:00;16.2;;;7.4;;
67344;SDS011;54230;52.402;6.276;2022-10-26T00:15:00;15.9;;;7.2;;
67344;SDS011;54230;52.402;6.276;2022-10-26T00:20:00;14.0;;;7.5;;
67344;SDS011;54230;52.402;6.276;2022-10-26T00:25:00;15.5;;;7.6;;
67344;SDS011;54230;52.402;6.276;2022-10-26T00:30:00;13.2;;;7.8;;
67344;SDS011;54230;52.402;6.276;2022-10-26T00:35:00;15.4;;;7.2;;
67344;SDS011;54230;52.402;6.276;2022-10-26T00:40:00;13.6;;;7.6;;
67344;SDS011;54230;52.402;6.276;2022-10-26T00:45:01;13.7;;;7.7;;
67344;SDS011;54230;52.402;6.276;2022-10-26T00:50:00;15.9;;;7.8;;
67344;SDS011;54230;52.402;6.276;2022-10-26T00:55:00;14.9;;;7.6;;
67344;SDS011;54230;52.402;6.276;2022-10-26T01:00:00;16.1;;;7.4;;
67344;SDS011;54230;52.402;6.276;2022-10-26T01:05:00;15.6;;;7.4;;
67344;SDS011;54230;52.402;6.276;2022-10-26T01:10:00;15.1;;;7.2;;
67344;SDS011;54230;52.402;6.276;2022-10-26T01:15:00;15.9;;;7.8;;
67344;SDS011;54230;52.402;6.276;2022-10-26T01:25:03;17.0;;;7.7;;
67344;SDS011;54230;52.402;6.276;2022-10-26T01:35:01;17.4;;;7.6;;
67344;SDS011;54230;52.402;6.276;2022-10-26T01:40:01;16.7;;;8.1;;
67344;SDS011;54230;52.402;6.276;2022-10-26T01:45:00;15.5;;;7.8;;
67344;SDS011;54230;52.402;6.276;2022-10-26T01:50:00;20.0;;;7.9;;
67344;SDS011;54230;52.402;6.276;2022-10-26T01:55:00;16.4;;;8.0;;
67344;SDS011;54230;52.402;6.276;2022-10-26T02:00:03;18.0;;;8.2;;
67344;SDS011;54230;52.402;6.276;2022-10-26T02:05:04;15.6;;;8.2;;
67344;SDS011;54230;52.402;6.276;2022-10-26T02:10:06;16.3;;;8.0;;
67344;SDS011;54230;52.402;6.276;2022-10-26T02:15:01;18.9;;;8.1;;
67344;SDS011;54230;52.402;6.276;2022-10-26T02:20:00;16.2;;;8.5;;
67344;SDS011;54230;52.402;6.276;2022-10-26T02:25:00;18.4;;;8.2;;
67344;SDS011;54230;52.402;6.276;2022-10-26T02:30:00;16.8;;;8.5;;
67344;SDS011;54230;52.402;6.276;2022-10-26T02:35:00;18.0;;;8.6;;
67344;SDS011;54230;52.402;6.276;2022-10-26T02:40:00;16.1;;;8.3;;
67344;SDS011;54230;52.402;6.276;2022-10-26T02:45:01;17.4;;;8.3;;
67344;SDS011;54230;52.402;6.276;2022-10-26T02:50:00;16.8;;;8.2;;
67344;SDS011;54230;52.402;6.276;2022-10-26T02:55:02;15.1;;;7.9;;
67344;SDS011;54230;52.402;6.276;2022-10-26T03:00:00;14.5;;;8.5;;
67344;SDS011;54230;52.402;6.276;2022-10-26T03:05:05;15.0;;;8.4;;
67344;SDS011;54230;52.402;6.276;2022-10-26T03:10:00;18.1;;;9.5;;
67344;SDS011;54230;52.402;6.276;2022-10-26T03:15:00;18.5;;;8.9;;
67344;SDS011;54230;52.402;6.276;2022-10-26T03:20:00;17.9;;;8.8;;
67344;SDS011;54230;52.402;6.276;2022-10-26T03:25:00;17.5;;;8.8;;
67344;SDS011;54230;52.402;6.276;2022-10-26T03:30:00;16.3;;;8.2;;
67344;SDS011;54230;52.402;6.276;2022-10-26T03:35:00;16.2;;;8.6;;
67344;SDS011;54230;52.402;6.276;2022-10-26T03:40:00;17.1;;;8.5;;
67344;SDS011;54230;52.402;6.276;2022-10-26T03:45:00;18.6;;;8.7;;
67344;SDS011;54230;52.402;6.276;2022-10-26T03:50:00;16.0;;;8.6;;
67344;SDS011;54230;52.402;6.276;2022-10-26T03:55:00;17.2;;;8.7;;
67344;SDS011;54230;52.402;6.276;2022-10-26T04:00:00;14.8;;;8.5;;
67344;SDS011;54230;52.402;6.276;2022-10-26T04:05:00;15.8;;;8.3;;
67344;SDS011;54230;52.402;6.276;2022-10-26T04:10:00;16.3;;;8.5;;
67344;SDS011;54230;52.402;6.276;2022-10-26T04:15:00;17.0;;;8.2;;
67344;SDS011;54230;52.402;6.276;2022-10-26T04:20:00;16.1;;;8.3;;
67344;SDS011;54230;52.402;6.276;2022-10-26T04:25:00;14.5;;;8.9;;
67344;SDS011;54230;52.402;6.276;2022-10-26T04:30:00;14.8;;;7.9;;
67344;SDS011;54230;52.402;6.276;2022-10-26T04:35:00;15.8;;;8.6;;
67344;SDS011;54230;52.402;6.276;2022-10-26T04:40:00;14.7;;;8.2;;
67344;SDS011;54230;52.402;6.276;2022-10-26T04:45:00;16.8;;;8.5;;
67344;SDS011;54230;52.402;6.276;2022-10-26T04:50:00;15.3;;;8.1;;
67344;SDS011;54230;52.402;6.276;2022-10-26T04:55:00;15.4;;;8.9;;
67344;SDS011;54230;52.402;6.276;2022-10-26T05:00:00;16.4;;;8.5;;
67344;SDS011;54230;52.402;6.276;2022-10-26T05:05:00;17.1;;;8.5;;
67344;SDS011;54230;52.402;6.276;2022-10-26T05:10:00;16.9;;;8.6;;
67344;SDS011;54230;52.402;6.276;2022-10-26T05:15:00;17.1;;;8.2;;
67344;SDS011;54230;52.402;6.276;2022-10-26T05:20:00;19.3;;;8.2;;
67344;SDS011;54230;52.402;6.276;2022-10-26T05:25:00;14.9;;;8.4;;
67344;SDS011;54230;52.402;6.276;2022-10-26T05:30:00;15.3;;;8.7;;
67344;SDS011;54230;52.402;6.276;2022-10-26T05:35:00;16.2;;;8.3;;
67344;SDS011;54230;52.402;6.276;2022-10-26T05:40:00;16.4;;;8.3;;
67344;SDS011;54230;52.402;6.276;2022-10-26T05:45:00;16.3;;;8.3;;
67344;SDS011;54230;52.402;6.276;2022-10-26T05:50:00;13.3;;;7.9;;
67344;SDS011;54230;52.402;6.276;2022-10-26T05:55:00;14.0;;;7.5;;
67344;SDS011;54230;52.402;6.276;2022-10-26T06:00:00;13.9;;;6.7;;
67344;SDS011;54230;52.402;6.276;2022-10-26T06:05:01;12.9;;;6.6;;
67344;SDS011;54230;52.402;6.276;2022-10-26T06:10:00;15.1;;;6.7;;
67344;SDS011;54230;52.402;6.276;2022-10-26T06:15:00;13.2;;;7.1;;
67344;SDS011;54230;52.402;6.276;2022-10-26T06:20:02;13.6;;;7.0;;
67344;SDS011;54230;52.402;6.276;2022-10-26T06:25:02;14.9;;;6.9;;
67344;SDS011;54230;52.402;6.276;2022-10-26T06:30:00;12.9;;;6.7;;
67344;SDS011;54230;52.402;6.276;2022-10-26T06:35:02;13.4;;;6.2;;
67344;SDS011;54230;52.402;6.276;2022-10-26T06:40:00;14.7;;;6.7;;
67344;SDS011;54230;52.402;6.276;2022-10-26T06:45:00;18.9;;;6.7;;
67344;SDS011;54230;52.402;6.276;2022-10-26T06:50:01;17.7;;;6.4;;
67344;SDS011;54230;52.402;6.276;2022-10-26T06:55:00;14.9;;;6.2;;
67344;SDS011;54230;52.402;6.276;2022-10-26T07:00:01;12.5;;;6.0;;
67344;SDS011;54230;52.402;6.276;2022-10-26T07:05:00;12.4;;;6.1;;
67344;SDS011;54230;52.402;6.276;2022-10-26T07:10:00;14.0;;;5.8;;
67344;SDS011;54230;52.402;6.276;2022-10-26T07:15:00;10.6;;;5.5;;
67344;SDS011;54230;52.402;6.276;2022-10-26T07:20:00;12.4;;;5.6;;
67344;SDS011;54230;52.402;6.276;2022-10-26T07:25:00;12.2;;;5.3;;
67344;SDS011;54230;52.402;6.276;2022-10-26T07:30:00;11.9;;;5.6;;
67344;SDS011;54230;52.402;6.276;2022-10-26T07:35:00;12.5;;;5.3;;
67344;SDS011;54230;52.402;6.276;2022-10-26T07:40:00;11.8;;;5.2;;
67344;SDS011;54230;52.402;6.276;2022-10-26T07:45:00;13.2;;;5.0;;
67344;SDS011;54230;52.402;6.276;2022-10-26T07:50:00;12.2;;;4.6;;
67344;SDS011;54230;52.402;6.276;2022-10-26T07:55:00;11.9;;;5.0;;
67344;SDS011;54230;52.402;6.276;2022-10-26T08:00:00;11.6;;;4.4;;
67344;SDS011;54230;52.402;6.276;2022-10-26T08:05:00;11.8;;;4.5;;
67344;SDS011;54230;52.402;6.276;2022-10-26T08:10:00;9.5;;;4.4;;
67344;SDS011;54230;52.402;6.276;2022-10-26T08:15:00;8.8;;;4.4;;
67344;SDS011;54230;52.402;6.276;2022-10-26T08:20:00;11.2;;;4.6;;
67344;SDS011;54230;52.402;6.276;2022-10-26T08:25:00;11.4;;;4.5;;
67344;SDS011;54230;52.402;6.276;2022-10-26T08:30:00;9.4;;;4.4;;
67344;SDS011;54230;52.402;6.276;2022-10-26T08:35:00;10.5;;;4.9;;
67344;SDS011;54230;52.402;6.276;2022-10-26T08:40:00;9.1;;;4.0;;
67344;SDS011;54230;52.402;6.276;2022-10-26T08:45:01;8.6;;;4.2;;
67344;SDS011;54230;52.402;6.276;2022-10-26T08:50:00;10.8;;;4.5;;
67344;SDS011;54230;52.402;6.276;2022-10-26T08:55:00;9.9;;;4.2;;
67344;SDS011;54230;52.402;6.276;2022-10-26T09:00:00;10.5;;;4.1;;
67344;SDS011;54230;52.402;6.276;2022-10-26T09:05:00;7.8;;;4.0;;
67344;SDS011;54230;52.402;6.276;2022-10-26T09:10:01;9.7;;;4.1;;
67344;SDS011;54230;52.402;6.276;2022-10-26T09:15:03;8.1;;;3.9;;
67344;SDS011;54230;52.402;6.276;2022-10-26T09:20:03;9.0;;;3.6;;
67344;SDS011;54230;52.402;6.276;2022-10-26T09:25:02;8.7;;;3.4;;
67344;SDS011;54230;52.402;6.276;2022-10-26T09:30:02;10.2;;;3.3;;
67344;SDS011;54230;52.402;6.276;2022-10-26T09:35:01;7.4;;;3.3;;
67344;SDS011;54230;52.402;6.276;2022-10-26T09:40:03;9.7;;;3.0;;
67344;SDS011;54230;52.402;6.276;2022-10-26T09:45:02;5.7;;;3.0;;
67344;SDS011;54230;52.402;6.276;2022-10-26T09:50:01;7.8;;;2.7;;
67344;SDS011;54230;52.402;6.276;2022-10-26T09:55:00;7.6;;;3.0;;
67344;SDS011;54230;52.402;6.276;2022-10-26T10:00:00;8.0;;;2.9;;
67344;SDS011;54230;52.402;6.276;2022-10-26T10:05:00;12.8;;;3.0;;
67344;SDS011;54230;52.402;6.276;2022-10-26T10:10:08;8.0;;;2.5;;
67344;SDS011;54230;52.402;6.276;2022-10-26T10:15:00;7.0;;;2.5;;
67344;SDS011;54230;52.402;6.276;2022-10-26T10:20:05;5.6;;;2.4;;
67344;SDS011;54230;52.402;6.276;2022-10-26T10:25:00;6.8;;;2.6;;
67344;SDS011;54230;52.402;6.276;2022-10-26T10:30:12;7.6;;;2.3;;
67344;SDS011;54230;52.402;6.276;2022-10-26T10:35:00;7.1;;;2.6;;
67344;SDS011;54230;52.402;6.276;2022-10-26T10:40:00;9.4;;;2.6;;
67344;SDS011;54230;52.402;6.276;2022-10-26T10:45:00;8.1;;;2.4;;
67344;SDS011;54230;52.402;6.276;2022-10-26T10:50:00;10.7;;;2.6;;
67344;SDS011;54230;52.402;6.276;2022-10-26T10:55:05;7.3;;;2.5;;
67344;SDS011;54230;52.402;6.276;2022-10-26T11:00:00;8.7;;;2.7;;
67344;SDS011;54230;52.402;6.276;2022-10-26T11:05:06;7.0;;;2.6;;
67344;SDS011;54230;52.402;6.276;2022-10-26T11:10:00;9.0;;;2.9;;
67344;SDS011;54230;52.402;6.276;2022-10-26T11:15:00;11.2;;;2.9;;
67344;SDS011;54230;52.402;6.276;2022-10-26T11:20:00;9.8;;;3.1;;
67344;SDS011;54230;52.402;6.276;2022-10-26T11:25:01;8.7;;;2.8;;
67344;SDS011;54230;52.402;6.276;2022-10-26T11:30:00;7.3;;;2.7;;
67344;SDS011;54230;52.402;6.276;2022-10-26T11:35:02;7.0;;;2.7;;
67344;SDS011;54230;52.402;6.276;2022-10-26T11:40:00;7.7;;;2.9;;
67344;SDS011;54230;52.402;6.276;2022-10-26T11:45:00;8.3;;;2.9;;
67344;SDS011;54230;52.402;6.276;2022-10-26T11:50:01;8.9;;;2.9;;
67344;SDS011;54230;52.402;6.276;2022-10-26T11:55:00;8.0;;;2.7;;
67344;SDS011;54230;52.402;6.276;2022-10-26T12:00:01;9.7;;;3.1;;
67344;SDS011;54230;52.402;6.276;2022-10-26T12:05:01;9.8;;;3.5;;
67344;SDS011;54230;52.402;6.276;2022-10-26T12:10:00;7.9;;;2.8;;
67344;SDS011;54230;52.402;6.276;2022-10-26T12:15:02;6.7;;;2.8;;
67344;SDS011;54230;52.402;6.276;2022-10-26T12:20:02;9.2;;;3.2;;
67344;SDS011;54230;52.402;6.276;2022-10-26T12:25:04;8.2;;;3.2;;
67344;SDS011;54230;52.402;6.276;2022-10-26T12:35:01;8.5;;;3.1;;
67344;SDS011;54230;52.402;6.276;2022-10-26T12:45:01;8.5;;;3.0;;
67344;SDS011;54230;52.402;6.276;2022-10-26T12:50:00;7.8;;;3.3;;
67344;SDS011;54230;52.402;6.276;2022-10-26T12:55:06;6.9;;;3.4;;
67344;SDS011;54230;52.402;6.276;2022-10-26T13:00:00;8.2;;;3.3;;
67344;SDS011;54230;52.402;6.276;2022-10-26T13:05:06;8.9;;;3.2;;
67344;SDS011;54230;52.402;6.276;2022-10-26T13:10:00;9.7;;;3.6;;
67344;SDS011;54230;52.402;6.276;2022-10-26T13:15:01;8.1;;;3.7;;
67344;SDS011;54230;52.402;6.276;2022-10-26T13:20:00;8.0;;;3.7;;
67344;SDS011;54230;52.402;6.276;2022-10-26T13:25:00;8.7;;;3.6;;
67344;SDS011;54230;52.402;6.276;2022-10-26T13:35:00;10.0;;;3.8;;
67344;SDS011;54230;52.402;6.276;2022-10-26T13:40:00;7.4;;;3.5;;
67344;SDS011;54230;52.402;6.276;2022-10-26T13:45:01;11.3;;;3.8;;
67344;SDS011;54230;52.402;6.276;2022-10-26T13:50:03;10.6;;;3.6;;
67344;SDS011;54230;52.402;6.276;2022-10-26T13:55:00;9.9;;;3.5;;
67344;SDS011;54230;52.402;6.276;2022-10-26T14:00:05;10.0;;;3.4;;
67344;SDS011;54230;52.402;6.276;2022-10-26T14:05:00;6.5;;;3.4;;
67344;SDS011;54230;52.402;6.276;2022-10-26T14:10:00;8.5;;;3.5;;
67344;SDS011;54230;52.402;6.276;2022-10-26T14:15:01;8.7;;;3.7;;
67344;SDS011;54230;52.402;6.276;2022-10-26T14:20:00;7.3;;;3.9;;
67344;SDS011;54230;52.402;6.276;2022-10-26T14:25:00;6.8;;;3.5;;
67344;SDS011;54230;52.402;6.276;2022-10-26T14:30:00;8.7;;;3.4;;
67344;SDS011;54230;52.402;6.276;2022-10-26T14:35:00;8.9;;;4.1;;
67344;SDS011;54230;52.402;6.276;2022-10-26T14:40:00;6.8;;;4.1;;
67344;SDS011;54230;52.402;6.276;2022-10-26T14:45:00;7.9;;;4.0;;
67344;SDS011;54230;52.402;6.276;2022-10-26T14:50:00;7.0;;;3.8;;
67344;SDS011;54230;52.402;6.276;2022-10-26T14:55:01;7.1;;;3.9;;
67344;SDS011;54230;52.402;6.276;2022-10-26T15:00:00;9.3;;;4.1;;
67344;SDS011;54230;52.402;6.276;2022-10-26T15:05:00;7.3;;;4.1;;
67344;SDS011;54230;52.402;6.276;2022-10-26T15:10:00;7.7;;;4.2;;
67344;SDS011;54230;52.402;6.276;2022-10-26T15:15:09;7.6;;;4.1;;
67344;SDS011;54230;52.402;6.276;2022-10-26T15:20:01;7.5;;;4.0;;
67344;SDS011;54230;52.402;6.276;2022-10-26T15:25:00;7.6;;;4.0;;
67344;SDS011;54230;52.402;6.276;2022-10-26T15:30:08;8.2;;;4.1;;
67344;SDS011;54230;52.402;6.276;2022-10-26T15:40:00;7.2;;;4.1;;
67344;SDS011;54230;52.402;6.276;2022-10-26T15:45:00;7.3;;;4.6;;
67344;SDS011;54230;52.402;6.276;2022-10-26T15:50:00;8.0;;;4.2;;
67344;SDS011;54230;52.402;6.276;2022-10-26T15:55:00;8.8;;;5.4;;
67344;SDS011;54230;52.402;6.276;2022-10-26T16:00:00;10.4;;;5.2;;
67344;SDS011;54230;52.402;6.276;2022-10-26T16:05:00;8.6;;;5.3;;
67344;SDS011;54230;52.402;6.276;2022-10-26T16:10:00;10.3;;;5.5;;
67344;SDS011;54230;52.402;6.276;2022-10-26T16:15:00;10.8;;;5.6;;
67344;SDS011;54230;52.402;6.276;2022-10-26T16:20:00;10.4;;;6.0;;
67344;SDS011;54230;52.402;6.276;2022-10-26T16:25:00;10.2;;;5.5;;
67344;SDS011;54230;52.402;6.276;2022-10-26T16:30:00;8.9;;;5.8;;
67344;SDS011;54230;52.402;6.276;2022-10-26T16:35:00;9.8;;;5.7;;
67344;SDS011;54230;52.402;6.276;2022-10-26T16:40:00;11.3;;;7.5;;
67344;SDS011;54230;52.402;6.276;2022-10-26T16:45:00;11.4;;;6.7;;
67344;SDS011;54230;52.402;6.276;2022-10-26T16:50:00;10.7;;;7.1;;
67344;SDS011;54230;52.402;6.276;2022-10-26T16:55:00;14.4;;;8.1;;
67344;SDS011;54230;52.402;6.276;2022-10-26T17:00:00;14.6;;;9.4;;
67344;SDS011;54230;52.402;6.276;2022-10-26T17:05:00;18.5;;;9.9;;
67344;SDS011;54230;52.402;6.276;2022-10-26T17:10:00;13.8;;;8.9;;
67344;SDS011;54230;52.402;6.276;2022-10-26T17:15:00;11.8;;;7.8;;
67344;SDS011;54230;52.402;6.276;2022-10-26T17:20:00;12.0;;;8.2;;
67344;SDS011;54230;52.402;6.276;2022-10-26T17:25:00;10.5;;;6.8;;
67344;SDS011;54230;52.402;6.276;2022-10-26T17:30:00;12.9;;;8.0;;
67344;SDS011;54230;52.402;6.276;2022-10-26T17:35:00;11.9;;;7.3;;
67344;SDS011;54230;52.402;6.276;2022-10-26T17:40:00;10.8;;;7.1;;
67344;SDS011;54230;52.402;6.276;2022-10-26T17:45:00;12.9;;;6.8;;
67344;SDS011;54230;52.402;6.276;2022-10-26T17:50:00;13.7;;;7.0;;
67344;SDS011;54230;52.402;6.276;2022-10-26T17:55:00;12.5;;;6.8;;
67344;SDS011;54230;52.402;6.276;2022-10-26T18:00:00;11.7;;;6.6;;
67344;SDS011;54230;52.402;6.276;2022-10-26T18:05:00;12.2;;;6.4;;
67344;SDS011;54230;52.402;6.276;2022-10-26T18:10:00;10.0;;;5.6;;
67344;SDS011;54230;52.402;6.276;2022-10-26T18:15:00;9.3;;;5.7;;
67344;SDS011;54230;52.402;6.276;2022-10-26T18:20:00;10.7;;;5.7;;
67344;SDS011;54230;52.402;6.276;2022-10-26T18:25:00;9.5;;;5.5;;
67344;SDS011;54230;52.402;6.276;2022-10-26T18:30:00;10.9;;;5.3;;
67344;SDS011;54230;52.402;6.276;2022-10-26T18:35:00;10.2;;;5.1;;
67344;SDS011;54230;52.402;6.276;2022-10-26T18:40:00;9.3;;;5.2;;
67344;SDS011;54230;52.402;6.276;2022-10-26T18:45:00;8.7;;;4.9;;
67344;SDS011;54230;52.402;6.276;2022-10-26T18:50:00;11.8;;;5.1;;
67344;SDS011;54230;52.402;6.276;2022-10-26T18:55:00;9.1;;;4.9;;
67344;SDS011;54230;52.402;6.276;2022-10-26T19:00:00;9.1;;;4.7;;
67344;SDS011;54230;52.402;6.276;2022-10-26T19:05:00;12.2;;;4.9;;
67344;SDS011;54230;52.402;6.276;2022-10-26T19:10:00;10.5;;;4.8;;
67344;SDS011;54230;52.402;6.276;2022-10-26T19:15:00;9.7;;;4.5;;
67344;SDS011;54230;52.402;6.276;2022-10-26T19:20:00;8.6;;;4.4;;
67344;SDS011;54230;52.402;6.276;2022-10-26T19:25:00;9.6;;;4.2;;
67344;SDS011;54230;52.402;6.276;2022-10-26T19:30:00;8.8;;;4.2;;
67344;SDS011;54230;52.402;6.276;2022-10-26T19:35:00;8.5;;;4.0;;
67344;SDS011;54230;52.402;6.276;2022-10-26T19:40:00;8.2;;;4.0;;
67344;SDS011;54230;52.402;6.276;2022-10-26T19:45:00;10.4;;;4.0;;
67344;SDS011;54230;52.402;6.276;2022-10-26T19:50:00;10.4;;;4.0;;
67344;SDS011;54230;52.402;6.276;2022-10-26T19:55:00;8.3;;;4.4;;
67344;SDS011;54230;52.402;6.276;2022-10-26T20:00:00;11.8;;;4.4;;
67344;SDS011;54230;52.402;6.276;2022-10-26T20:05:00;9.9;;;4.6;;
67344;SDS011;54230;52.402;6.276;2022-10-26T20:10:00;11.0;;;4.4;;
67344;SDS011;54230;52.402;6.276;2022-10-26T20:15:00;11.0;;;4.5;;
67344;SDS011;54230;52.402;6.276;2022-10-26T20:20:00;9.8;;;4.6;;
67344;SDS011;54230;52.402;6.276;2022-10-26T20:25:00;11.4;;;4.6;;
67344;SDS011;54230;52.402;6.276;2022-10-26T20:30:00;10.9;;;4.7;;
67344;SDS011;54230;52.402;6.276;2022-10-26T20:35:00;12.6;;;4.5;;
67344;SDS011;54230;52.402;6.276;2022-10-26T20:40:00;10.5;;;4.8;;
67344;SDS011;54230;52.402;6.276;2022-10-26T20:45:02;12.7;;;4.8;;
67344;SDS011;54230;52.402;6.276;2022-10-26T20:50:00;11.2;;;4.7;;
67344;SDS011;54230;52.402;6.276;2022-10-26T20:55:01;10.6;;;4.8;;
67344;SDS011;54230;52.402;6.276;2022-10-26T21:00:00;10.3;;;4.6;;
67344;SDS011;54230;52.402;6.276;2022-10-26T21:05:00;9.1;;;4.8;;
67344;SDS011;54230;52.402;6.276;2022-10-26T21:10:00;12.4;;;4.9;;
67344;SDS011;54230;52.402;6.276;2022-10-26T21:15:00;11.4;;;4.9;;
67344;SDS011;54230;52.402;6.276;2022-10-26T21:20:00;12.3;;;5.0;;
67344;SDS011;54230;52.402;6.276;2022-10-26T21:25:00;10.5;;;5.1;;
67344;SDS011;54230;52.402;6.276;2022-10-26T21:30:00;11.1;;;5.2;;
67344;SDS011;54230;52.402;6.276;2022-10-26T21:35:00;11.1;;;5.5;;
67344;SDS011;54230;52.402;6.276;2022-10-26T21:40:00;13.3;;;5.7;;
67344;SDS011;54230;52.402;6.276;2022-10-26T21:45:00;14.0;;;5.5;;
67344;SDS011;54230;52.402;6.276;2022-10-26T21:50:00;11.5;;;5.0;;
67344;SDS011;54230;52.402;6.276;2022-10-26T21:55:00;12.3;;;5.1;;
67344;SDS011;54230;52.402;6.276;2022-10-26T22:00:00;12.9;;;4.9;;
67344;SDS011;54230;52.402;6.276;2022-10-26T22:05:00;12.9;;;5.0;;
67344;SDS011;54230;52.402;6.276;2022-10-26T22:10:00;11.1;;;4.8;;
67344;SDS011;54230;52.402;6.276;2022-10-26T22:15:00;12.8;;;5.1;;
67344;SDS011;54230;52.402;6.276;2022-10-26T22:20:00;11.1;;;5.1;;
67344;SDS011;54230;52.402;6.276;2022-10-26T22:25:00;12.1;;;5.2;;
67344;SDS011;54230;52.402;6.276;2022-10-26T22:30:00;11.3;;;5.4;;
67344;SDS011;54230;52.402;6.276;2022-10-26T22:35:00;12.3;;;5.2;;
67344;SDS011;54230;52.402;6.276;2022-10-26T22:40:00;12.4;;;5.3;;
67344;SDS011;54230;52.402;6.276;2022-10-26T22:45:00;9.3;;;5.2;;
67344;SDS011;54230;52.402;6.276;2022-10-26T22:50:00;12.8;;;5.6;;
67344;SDS011;54230;52.402;6.276;2022-10-26T22:55:00;13.1;;;5.5;;
67344;SDS011;54230;52.402;6.276;2022-10-26T23:00:00;12.3;;;5.7;;
67344;SDS011;54230;52.402;6.276;2022-10-26T23:05:00;11.8;;;5.8;;
67344;SDS011;54230;52.402;6.276;2022-10-26T23:10:00;12.0;;;6.3;;
67344;SDS011;54230;52.402;6.276;2022-10-26T23:15:00;15.7;;;6.3;;
67344;SDS011;54230;52.402;6.276;2022-10-26T23:20:00;12.4;;;5.9;;
67344;SDS011;54230;52.402;6.276;2022-10-26T23:25:00;14.3;;;6.2;;
67344;SDS011;54230;52.402;6.276;2022-10-26T23:30:00;11.3;;;6.1;;
67344;SDS011;54230;52.402;6.276;2022-10-26T23:35:00;14.3;;;6.7;;
67344;SDS011;54230;52.402;6.276;2022-10-26T23:40:00;13.6;;;6.6;;
67344;SDS011;54230;52.402;6.276;2022-10-26T23:45:00;12.8;;;6.7;;
67344;SDS011;54230;52.402;6.276;2022-10-26T23:50:00;14.5;;;6.9;;
67344;SDS011;54230;52.402;6.276;2022-10-26T23:55:00;14.0;;;6.9;;
